sensor_id;sensor_type;location;lat;lon;timestamp;temperature;humidity
27707;DHT22;36332;51.384;0.040;2023-03-23T00:01:37;11.70;99.90
27707;DHT22;36332;51.384;0.040;2023-03-23T00:04:03;11.60;99.90
27707;DHT22;36332;51.384;0.040;2023-03-23T00:06:30;11.60;99.90
27707;DHT22;36332;51.384;0.040;2023-03-23T00:08:59;11.70;99.90
27707;DHT22;36332;51.384;0.040;2023-03-23T00:11:31;11.60;99.90
27707;DHT22;36332;51.384;0.040;2023-03-23T00:13:59;11.60;99.90
27707;DHT22;36332;51.384;0.040;2023-03-23T00:16:31;11.60;99.90
27707;DHT22;36332;51.384;0.040;2023-03-23T00:19:04;11.50;99.90
27707;DHT22;36332;51.384;0.040;2023-03-23T00:21:36;11.60;99.90
27707;DHT22;36332;51.384;0.040;2023-03-23T00:24:06;11.60;99.90
27707;DHT22;36332;51.384;0.040;2023-03-23T00:26:34;11.50;99.90
27707;DHT22;36332;51.384;0.040;2023-03-23T00:29:03;11.50;99.90
27707;DHT22;36332;51.384;0.040;2023-03-23T00:31:30;11.50;99.90
27707;DHT22;36332;51.384;0.040;2023-03-23T00:34:04;11.50;99.90
27707;DHT22;36332;51.384;0.040;2023-03-23T00:36:32;11.50;99.90
27707;DHT22;36332;51.384;0.040;2023-03-23T00:39:05;11.50;99.90
27707;DHT22;36332;51.384;0.040;2023-03-23T00:41:31;11.50;99.90
27707;DHT22;36332;51.384;0.040;2023-03-23T00:44:00;11.40;99.90
27707;DHT22;36332;51.384;0.040;2023-03-23T00:46:27;11.50;99.90
27707;DHT22;36332;51.384;0.040;2023-03-23T00:48:55;11.50;99.90
27707;DHT22;36332;51.384;0.040;2023-03-23T00:51:23;11.50;99.90
27707;DHT22;36332;51.384;0.040;2023-03-23T00:53:50;11.50;99.90
27707;DHT22;36332;51.384;0.040;2023-03-23T00:56:17;11.40;99.90
27707;DHT22;36332;51.384;0.040;2023-03-23T00:58:44;11.40;99.90
27707;DHT22;36332;51.384;0.040;2023-03-23T01:01:10;11.40;99.90
27707;DHT22;36332;51.384;0.040;2023-03-23T01:03:37;11.40;99.90
27707;DHT22;36332;51.384;0.040;2023-03-23T01:06:06;11.40;99.90
27707;DHT22;36332;51.384;0.040;2023-03-23T01:08:34;11.40;99.90
27707;DHT22;36332;51.384;0.040;2023-03-23T01:11:05;11.40;99.90
27707;DHT22;36332;51.384;0.040;2023-03-23T01:13:33;11.40;99.90
27707;DHT22;36332;51.384;0.040;2023-03-23T01:15:59;11.40;99.90
27707;DHT22;36332;51.384;0.040;2023-03-23T01:18:26;11.40;99.90
27707;DHT22;36332;51.384;0.040;2023-03-23T01:20:53;11.40;99.90
27707;DHT22;36332;51.384;0.040;2023-03-23T01:23:20;11.40;99.90
27707;DHT22;36332;51.384;0.040;2023-03-23T01:25:46;11.40;99.90
27707;DHT22;36332;51.384;0.040;2023-03-23T01:28:13;11.40;99.90
27707;DHT22;36332;51.384;0.040;2023-03-23T01:30:39;11.30;99.90
27707;DHT22;36332;51.384;0.040;2023-03-23T01:33:07;11.30;99.90
27707;DHT22;36332;51.384;0.040;2023-03-23T01:35:37;11.30;99.90
27707;DHT22;36332;51.384;0.040;2023-03-23T01:38:04;11.20;99.90
27707;DHT22;36332;51.384;0.040;2023-03-23T01:40:31;11.10;99.90
27707;DHT22;36332;51.384;0.040;2023-03-23T01:42:58;11.00;99.90
27707;DHT22;36332;51.384;0.040;2023-03-23T01:45:29;10.90;99.90
27707;DHT22;36332;51.384;0.040;2023-03-23T01:48:03;10.90;99.90
27707;DHT22;36332;51.384;0.040;2023-03-23T01:50:37;11.00;99.90
27707;DHT22;36332;51.384;0.040;2023-03-23T01:53:06;10.80;99.90
27707;DHT22;36332;51.384;0.040;2023-03-23T01:55:37;10.90;99.90
27707;DHT22;36332;51.384;0.040;2023-03-23T01:58:05;10.90;99.90
27707;DHT22;36332;51.384;0.040;2023-03-23T02:00:33;10.90;99.90
27707;DHT22;36332;51.384;0.040;2023-03-23T02:03:00;10.90;99.90
27707;DHT22;36332;51.384;0.040;2023-03-23T02:05:36;10.90;99.90
27707;DHT22;36332;51.384;0.040;2023-03-23T02:08:11;10.70;99.90
27707;DHT22;36332;51.384;0.040;2023-03-23T02:10:40;10.80;99.90
27707;DHT22;36332;51.384;0.040;2023-03-23T02:13:09;10.80;99.90
27707;DHT22;36332;51.384;0.040;2023-03-23T02:15:56;10.70;99.90
27707;DHT22;36332;51.384;0.040;2023-03-23T02:27:13;10.60;99.90
27707;DHT22;36332;51.384;0.040;2023-03-23T02:35:33;10.50;99.90
27707;DHT22;36332;51.384;0.040;2023-03-23T02:38:09;10.50;99.90
27707;DHT22;36332;51.384;0.040;2023-03-23T02:40:43;10.50;99.90
27707;DHT22;36332;51.384;0.040;2023-03-23T02:43:14;10.40;99.90
27707;DHT22;36332;51.384;0.040;2023-03-23T02:45:43;10.40;99.90
27707;DHT22;36332;51.384;0.040;2023-03-23T02:48:13;10.40;99.90
27707;DHT22;36332;51.384;0.040;2023-03-23T02:50:44;10.40;99.90
27707;DHT22;36332;51.384;0.040;2023-03-23T02:53:13;10.40;99.90
27707;DHT22;36332;51.384;0.040;2023-03-23T02:55:43;10.30;99.90
27707;DHT22;36332;51.384;0.040;2023-03-23T02:58:15;10.40;99.90
27707;DHT22;36332;51.384;0.040;2023-03-23T03:00:44;10.40;99.90
27707;DHT22;36332;51.384;0.040;2023-03-23T03:03:19;10.30;99.90
27707;DHT22;36332;51.384;0.040;2023-03-23T03:06:23;10.30;99.90
27707;DHT22;36332;51.384;0.040;2023-03-23T03:08:57;10.30;99.90
27707;DHT22;36332;51.384;0.040;2023-03-23T03:11:25;10.20;99.90
27707;DHT22;36332;51.384;0.040;2023-03-23T03:14:00;10.30;99.90
27707;DHT22;36332;51.384;0.040;2023-03-23T03:16:33;10.40;99.90
27707;DHT22;36332;51.384;0.040;2023-03-23T03:19:07;10.30;99.90
27707;DHT22;36332;51.384;0.040;2023-03-23T03:21:37;10.30;99.90
27707;DHT22;36332;51.384;0.040;2023-03-23T03:24:06;10.30;99.90
27707;DHT22;36332;51.384;0.040;2023-03-23T03:26:44;10.30;99.90
27707;DHT22;36332;51.384;0.040;2023-03-23T03:29:33;10.30;99.90
27707;DHT22;36332;51.384;0.040;2023-03-23T03:32:02;10.30;99.90
27707;DHT22;36332;51.384;0.040;2023-03-23T03:34:33;10.20;99.90
27707;DHT22;36332;51.384;0.040;2023-03-23T03:37:00;10.20;99.90
27707;DHT22;36332;51.384;0.040;2023-03-23T03:39:27;10.20;99.90
27707;DHT22;36332;51.384;0.040;2023-03-23T03:41:55;10.10;99.90
27707;DHT22;36332;51.384;0.040;2023-03-23T03:44:21;10.10;99.90
27707;DHT22;36332;51.384;0.040;2023-03-23T03:46:48;10.10;99.90
27707;DHT22;36332;51.384;0.040;2023-03-23T03:49:15;10.10;99.90
27707;DHT22;36332;51.384;0.040;2023-03-23T03:51:43;10.00;99.90
27707;DHT22;36332;51.384;0.040;2023-03-23T03:54:17;9.90;99.90
27707;DHT22;36332;51.384;0.040;2023-03-23T03:56:44;9.90;99.90
27707;DHT22;36332;51.384;0.040;2023-03-23T03:59:38;9.90;99.90
27707;DHT22;36332;51.384;0.040;2023-03-23T04:02:45;9.90;99.90
27707;DHT22;36332;51.384;0.040;2023-03-23T04:05:15;10.00;99.90
27707;DHT22;36332;51.384;0.040;2023-03-23T04:07:44;10.00;99.90
27707;DHT22;36332;51.384;0.040;2023-03-23T04:10:12;10.00;99.90
27707;DHT22;36332;51.384;0.040;2023-03-23T04:12:41;10.00;99.90
27707;DHT22;36332;51.384;0.040;2023-03-23T04:15:20;10.00;99.90
27707;DHT22;36332;51.384;0.040;2023-03-23T04:17:48;10.00;99.90
27707;DHT22;36332;51.384;0.040;2023-03-23T04:20:16;10.00;99.90
27707;DHT22;36332;51.384;0.040;2023-03-23T04:22:50;10.00;99.90
27707;DHT22;36332;51.384;0.040;2023-03-23T04:25:19;10.00;99.90
27707;DHT22;36332;51.384;0.040;2023-03-23T04:27:51;10.00;99.90
27707;DHT22;36332;51.384;0.040;2023-03-23T04:30:24;10.00;99.90
27707;DHT22;36332;51.384;0.040;2023-03-23T04:33:07;10.00;99.90
27707;DHT22;36332;51.384;0.040;2023-03-23T04:35:35;10.00;99.90
27707;DHT22;36332;51.384;0.040;2023-03-23T04:38:11;10.00;99.90
27707;DHT22;36332;51.384;0.040;2023-03-23T04:40:40;10.10;99.90
27707;DHT22;36332;51.384;0.040;2023-03-23T04:43:23;10.10;99.90
27707;DHT22;36332;51.384;0.040;2023-03-23T04:45:59;10.00;99.90
27707;DHT22;36332;51.384;0.040;2023-03-23T04:48:30;10.00;99.90
27707;DHT22;36332;51.384;0.040;2023-03-23T04:51:18;9.90;99.90
27707;DHT22;36332;51.384;0.040;2023-03-23T04:53:48;9.90;99.90
27707;DHT22;36332;51.384;0.040;2023-03-23T04:56:14;9.90;99.90
27707;DHT22;36332;51.384;0.040;2023-03-23T04:58:44;9.80;99.90
27707;DHT22;36332;51.384;0.040;2023-03-23T05:01:14;9.80;99.90
27707;DHT22;36332;51.384;0.040;2023-03-23T05:03:51;9.70;99.90
27707;DHT22;36332;51.384;0.040;2023-03-23T05:06:17;9.80;99.90
27707;DHT22;36332;51.384;0.040;2023-03-23T05:08:45;9.80;99.90
27707;DHT22;36332;51.384;0.040;2023-03-23T05:11:12;10.00;99.90
27707;DHT22;36332;51.384;0.040;2023-03-23T05:13:42;9.80;99.90
27707;DHT22;36332;51.384;0.040;2023-03-23T05:16:11;9.80;99.90
27707;DHT22;36332;51.384;0.040;2023-03-23T05:18:40;9.70;99.90
27707;DHT22;36332;51.384;0.040;2023-03-23T05:21:10;9.80;99.90
27707;DHT22;36332;51.384;0.040;2023-03-23T05:23:40;9.80;99.90
27707;DHT22;36332;51.384;0.040;2023-03-23T05:26:16;9.70;99.90
27707;DHT22;36332;51.384;0.040;2023-03-23T05:28:42;9.70;99.90
27707;DHT22;36332;51.384;0.040;2023-03-23T05:31:23;9.70;99.90
27707;DHT22;36332;51.384;0.040;2023-03-23T05:33:51;9.70;99.90
27707;DHT22;36332;51.384;0.040;2023-03-23T05:36:28;9.70;99.90
27707;DHT22;36332;51.384;0.040;2023-03-23T05:39:07;9.60;99.90
27707;DHT22;36332;51.384;0.040;2023-03-23T05:42:05;9.70;99.90
27707;DHT22;36332;51.384;0.040;2023-03-23T05:45:04;9.60;99.90
27707;DHT22;36332;51.384;0.040;2023-03-23T05:47:32;9.60;99.90
27707;DHT22;36332;51.384;0.040;2023-03-23T05:50:07;9.50;99.90
27707;DHT22;36332;51.384;0.040;2023-03-23T05:52:36;9.50;99.90
27707;DHT22;36332;51.384;0.040;2023-03-23T05:55:08;9.50;99.90
27707;DHT22;36332;51.384;0.040;2023-03-23T05:57:37;9.50;99.90
27707;DHT22;36332;51.384;0.040;2023-03-23T06:00:27;9.50;99.90
27707;DHT22;36332;51.384;0.040;2023-03-23T06:03:07;9.50;99.90
27707;DHT22;36332;51.384;0.040;2023-03-23T06:05:43;9.50;99.90
27707;DHT22;36332;51.384;0.040;2023-03-23T06:08:14;9.40;99.90
27707;DHT22;36332;51.384;0.040;2023-03-23T06:10:41;9.40;99.90
27707;DHT22;36332;51.384;0.040;2023-03-23T06:13:08;9.50;99.90
27707;DHT22;36332;51.384;0.040;2023-03-23T06:15:40;9.40;99.90
27707;DHT22;36332;51.384;0.040;2023-03-23T06:18:26;9.40;99.90
27707;DHT22;36332;51.384;0.040;2023-03-23T06:21:11;9.40;99.90
27707;DHT22;36332;51.384;0.040;2023-03-23T06:23:53;9.50;99.90
27707;DHT22;36332;51.384;0.040;2023-03-23T06:26:25;9.50;99.90
27707;DHT22;36332;51.384;0.040;2023-03-23T06:28:57;9.60;99.90
27707;DHT22;36332;51.384;0.040;2023-03-23T06:31:26;9.60;99.90
27707;DHT22;36332;51.384;0.040;2023-03-23T06:33:53;9.70;99.90
27707;DHT22;36332;51.384;0.040;2023-03-23T06:36:26;9.80;99.90
27707;DHT22;36332;51.384;0.040;2023-03-23T06:39:07;9.70;99.90
27707;DHT22;36332;51.384;0.040;2023-03-23T06:41:52;9.70;99.90
27707;DHT22;36332;51.384;0.040;2023-03-23T06:44:20;9.90;99.90
27707;DHT22;36332;51.384;0.040;2023-03-23T06:46:46;10.00;99.90
27707;DHT22;36332;51.384;0.040;2023-03-23T06:49:21;10.00;99.90
27707;DHT22;36332;51.384;0.040;2023-03-23T06:51:55;10.00;99.90
27707;DHT22;36332;51.384;0.040;2023-03-23T06:54:24;10.00;99.90
27707;DHT22;36332;51.384;0.040;2023-03-23T06:56:51;10.00;99.90
27707;DHT22;36332;51.384;0.040;2023-03-23T06:59:18;10.00;99.90
27707;DHT22;36332;51.384;0.040;2023-03-23T07:01:46;9.90;99.90
27707;DHT22;36332;51.384;0.040;2023-03-23T07:04:15;9.90;99.90
27707;DHT22;36332;51.384;0.040;2023-03-23T07:07:08;9.90;99.90
27707;DHT22;36332;51.384;0.040;2023-03-23T07:09:44;10.00;99.90
27707;DHT22;36332;51.384;0.040;2023-03-23T07:12:12;10.00;99.90
27707;DHT22;36332;51.384;0.040;2023-03-23T07:14:45;10.00;99.90
27707;DHT22;36332;51.384;0.040;2023-03-23T07:17:12;10.10;99.90
27707;DHT22;36332;51.384;0.040;2023-03-23T07:19:49;10.10;99.90
27707;DHT22;36332;51.384;0.040;2023-03-23T07:22:17;10.10;99.90
27707;DHT22;36332;51.384;0.040;2023-03-23T07:24:49;10.20;99.90
27707;DHT22;36332;51.384;0.040;2023-03-23T07:27:22;10.20;99.90
27707;DHT22;36332;51.384;0.040;2023-03-23T07:29:53;10.30;99.90
27707;DHT22;36332;51.384;0.040;2023-03-23T07:32:23;10.40;99.90
27707;DHT22;36332;51.384;0.040;2023-03-23T07:34:50;10.50;99.90
27707;DHT22;36332;51.384;0.040;2023-03-23T07:37:35;10.60;99.90
27707;DHT22;36332;51.384;0.040;2023-03-23T07:40:03;10.70;99.90
27707;DHT22;36332;51.384;0.040;2023-03-23T07:42:43;10.80;99.90
27707;DHT22;36332;51.384;0.040;2023-03-23T07:45:12;10.90;99.90
27707;DHT22;36332;51.384;0.040;2023-03-23T07:47:39;11.00;99.90
27707;DHT22;36332;51.384;0.040;2023-03-23T07:50:06;11.10;99.90
27707;DHT22;36332;51.384;0.040;2023-03-23T07:52:38;11.10;99.90
27707;DHT22;36332;51.384;0.040;2023-03-23T07:55:07;11.10;99.90
27707;DHT22;36332;51.384;0.040;2023-03-23T07:57:55;11.20;99.90
27707;DHT22;36332;51.384;0.040;2023-03-23T08:00:22;11.30;99.90
27707;DHT22;36332;51.384;0.040;2023-03-23T08:02:57;11.40;99.90
27707;DHT22;36332;51.384;0.040;2023-03-23T08:05:46;11.60;99.90
27707;DHT22;36332;51.384;0.040;2023-03-23T08:08:34;11.60;99.90
27707;DHT22;36332;51.384;0.040;2023-03-23T08:11:00;11.60;99.90
27707;DHT22;36332;51.384;0.040;2023-03-23T08:13:42;11.70;99.90
27707;DHT22;36332;51.384;0.040;2023-03-23T08:16:35;11.70;99.90
27707;DHT22;36332;51.384;0.040;2023-03-23T08:19:37;11.60;99.90
27707;DHT22;36332;51.384;0.040;2023-03-23T08:22:30;11.60;99.90
27707;DHT22;36332;51.384;0.040;2023-03-23T08:25:16;11.70;99.90
27707;DHT22;36332;51.384;0.040;2023-03-23T08:28:09;11.80;99.90
27707;DHT22;36332;51.384;0.040;2023-03-23T08:31:11;11.90;99.90
27707;DHT22;36332;51.384;0.040;2023-03-23T08:33:56;12.00;99.90
27707;DHT22;36332;51.384;0.040;2023-03-23T08:36:42;12.10;99.90
27707;DHT22;36332;51.384;0.040;2023-03-23T08:39:37;12.10;99.90
27707;DHT22;36332;51.384;0.040;2023-03-23T08:42:15;12.20;99.90
27707;DHT22;36332;51.384;0.040;2023-03-23T08:45:04;12.20;99.90
27707;DHT22;36332;51.384;0.040;2023-03-23T08:47:49;12.30;99.90
27707;DHT22;36332;51.384;0.040;2023-03-23T08:50:38;12.40;99.90
27707;DHT22;36332;51.384;0.040;2023-03-23T08:53:16;12.50;99.90
27707;DHT22;36332;51.384;0.040;2023-03-23T08:55:49;12.60;99.90
27707;DHT22;36332;51.384;0.040;2023-03-23T08:58:24;12.90;99.90
27707;DHT22;36332;51.384;0.040;2023-03-23T09:01:09;13.00;99.90
27707;DHT22;36332;51.384;0.040;2023-03-23T09:03:43;12.90;99.90
27707;DHT22;36332;51.384;0.040;2023-03-23T09:06:36;13.00;99.90
27707;DHT22;36332;51.384;0.040;2023-03-23T09:09:04;12.90;99.90
27707;DHT22;36332;51.384;0.040;2023-03-23T09:11:33;13.00;99.90
27707;DHT22;36332;51.384;0.040;2023-03-23T09:14:01;13.10;99.90
27707;DHT22;36332;51.384;0.040;2023-03-23T09:16:27;13.20;99.90
27707;DHT22;36332;51.384;0.040;2023-03-23T09:18:54;13.20;99.90
27707;DHT22;36332;51.384;0.040;2023-03-23T09:21:27;13.30;99.90
27707;DHT22;36332;51.384;0.040;2023-03-23T09:23:55;13.30;99.90
27707;DHT22;36332;51.384;0.040;2023-03-23T09:26:26;13.40;99.90
27707;DHT22;36332;51.384;0.040;2023-03-23T09:28:52;13.60;99.90
27707;DHT22;36332;51.384;0.040;2023-03-23T09:31:19;13.70;99.90
27707;DHT22;36332;51.384;0.040;2023-03-23T09:33:47;13.70;99.90
27707;DHT22;36332;51.384;0.040;2023-03-23T09:36:13;13.80;99.90
27707;DHT22;36332;51.384;0.040;2023-03-23T09:38:43;13.90;99.90
27707;DHT22;36332;51.384;0.040;2023-03-23T09:44:30;14.00;99.90
27707;DHT22;36332;51.384;0.040;2023-03-23T09:47:30;13.90;99.90
27707;DHT22;36332;51.384;0.040;2023-03-23T09:53:16;13.80;99.90
27707;DHT22;36332;51.384;0.040;2023-03-23T09:55:44;14.00;99.90
27707;DHT22;36332;51.384;0.040;2023-03-23T09:58:23;14.20;99.90
27707;DHT22;36332;51.384;0.040;2023-03-23T10:01:03;14.30;99.90
27707;DHT22;36332;51.384;0.040;2023-03-23T10:03:39;14.20;99.90
27707;DHT22;36332;51.384;0.040;2023-03-23T10:06:14;14.00;99.90
27707;DHT22;36332;51.384;0.040;2023-03-23T10:08:53;13.90;99.90
27707;DHT22;36332;51.384;0.040;2023-03-23T10:11:49;13.70;99.90
27707;DHT22;36332;51.384;0.040;2023-03-23T10:14:36;13.70;99.90
27707;DHT22;36332;51.384;0.040;2023-03-23T10:17:28;13.80;99.90
27707;DHT22;36332;51.384;0.040;2023-03-23T10:22:32;14.10;99.90
27707;DHT22;36332;51.384;0.040;2023-03-23T10:25:16;14.10;99.90
27707;DHT22;36332;51.384;0.040;2023-03-23T10:30:36;14.20;99.90
27707;DHT22;36332;51.384;0.040;2023-03-23T10:33:28;14.00;99.90
27707;DHT22;36332;51.384;0.040;2023-03-23T10:36:08;14.00;99.90
27707;DHT22;36332;51.384;0.040;2023-03-23T10:41:11;13.70;99.90
27707;DHT22;36332;51.384;0.040;2023-03-23T10:43:40;13.50;99.90
27707;DHT22;36332;51.384;0.040;2023-03-23T10:49:12;13.10;99.90
27707;DHT22;36332;51.384;0.040;2023-03-23T10:51:43;13.00;99.90
27707;DHT22;36332;51.384;0.040;2023-03-23T10:54:10;13.00;99.90
27707;DHT22;36332;51.384;0.040;2023-03-23T10:56:40;12.90;99.90
27707;DHT22;36332;51.384;0.040;2023-03-23T10:59:27;12.80;99.90
27707;DHT22;36332;51.384;0.040;2023-03-23T11:01:56;12.40;99.90
27707;DHT22;36332;51.384;0.040;2023-03-23T11:04:24;12.20;99.90
27707;DHT22;36332;51.384;0.040;2023-03-23T11:06:53;12.20;99.90
27707;DHT22;36332;51.384;0.040;2023-03-23T11:09:32;12.00;99.90
27707;DHT22;36332;51.384;0.040;2023-03-23T11:11:59;12.00;99.90
27707;DHT22;36332;51.384;0.040;2023-03-23T11:14:34;12.30;99.90
27707;DHT22;36332;51.384;0.040;2023-03-23T11:17:05;12.30;99.90
27707;DHT22;36332;51.384;0.040;2023-03-23T11:19:35;12.40;99.90
27707;DHT22;36332;51.384;0.040;2023-03-23T11:22:08;12.40;99.90
27707;DHT22;36332;51.384;0.040;2023-03-23T11:24:45;12.50;99.90
27707;DHT22;36332;51.384;0.040;2023-03-23T11:27:14;13.00;99.90
27707;DHT22;36332;51.384;0.040;2023-03-23T11:32:16;13.20;99.90
27707;DHT22;36332;51.384;0.040;2023-03-23T11:34:46;13.40;99.90
27707;DHT22;36332;51.384;0.040;2023-03-23T11:39:59;13.90;99.90
27707;DHT22;36332;51.384;0.040;2023-03-23T11:42:42;12.80;99.90
27707;DHT22;36332;51.384;0.040;2023-03-23T11:45:35;14.60;99.90
27707;DHT22;36332;51.384;0.040;2023-03-23T11:48:28;14.80;99.90
27707;DHT22;36332;51.384;0.040;2023-03-23T11:53:54;15.00;99.90
27707;DHT22;36332;51.384;0.040;2023-03-23T11:56:26;15.00;99.90
27707;DHT22;36332;51.384;0.040;2023-03-23T11:58:55;15.00;99.90
27707;DHT22;36332;51.384;0.040;2023-03-23T12:10:24;15.30;99.90
27707;DHT22;36332;51.384;0.040;2023-03-23T12:13:12;15.40;99.90
27707;DHT22;36332;51.384;0.040;2023-03-23T12:15:50;15.50;99.90
27707;DHT22;36332;51.384;0.040;2023-03-23T12:19:21;15.40;99.90
27707;DHT22;36332;51.384;0.040;2023-03-23T12:22:30;15.30;99.90
27707;DHT22;36332;51.384;0.040;2023-03-23T12:24:47;15.10;99.90
27707;DHT22;36332;51.384;0.040;2023-03-23T12:33:20;15.10;99.90
27707;DHT22;36332;51.384;0.040;2023-03-23T12:38:26;15.60;99.90
27707;DHT22;36332;51.384;0.040;2023-03-23T12:41:11;15.90;99.90
27707;DHT22;36332;51.384;0.040;2023-03-23T12:49:21;16.30;99.90
27707;DHT22;36332;51.384;0.040;2023-03-23T12:52:12;16.60;99.90
27707;DHT22;36332;51.384;0.040;2023-03-23T13:00:53;17.50;99.90
27707;DHT22;36332;51.384;0.040;2023-03-23T13:03:35;17.70;99.90
27707;DHT22;36332;51.384;0.040;2023-03-23T13:11:36;17.30;99.90
27707;DHT22;36332;51.384;0.040;2023-03-23T13:16:44;16.90;99.90
27707;DHT22;36332;51.384;0.040;2023-03-23T13:22:13;16.60;99.90
27707;DHT22;36332;51.384;0.040;2023-03-23T13:24:52;16.40;99.90
27707;DHT22;36332;51.384;0.040;2023-03-23T13:27:26;16.30;99.90
27707;DHT22;36332;51.384;0.040;2023-03-23T13:29:55;16.30;99.90
27707;DHT22;36332;51.384;0.040;2023-03-23T13:32:34;16.40;99.90
27707;DHT22;36332;51.384;0.040;2023-03-23T13:35:12;16.50;99.90
27707;DHT22;36332;51.384;0.040;2023-03-23T13:37:45;16.90;99.90
27707;DHT22;36332;51.384;0.040;2023-03-23T13:42:57;17.50;99.90
27707;DHT22;36332;51.384;0.040;2023-03-23T13:45:36;17.80;99.90
27707;DHT22;36332;51.384;0.040;2023-03-23T13:50:56;18.30;99.90
27707;DHT22;36332;51.384;0.040;2023-03-23T13:53:46;18.60;99.90
27707;DHT22;36332;51.384;0.040;2023-03-23T13:56:19;18.70;99.90
27707;DHT22;36332;51.384;0.040;2023-03-23T13:58:51;18.90;99.90
27707;DHT22;36332;51.384;0.040;2023-03-23T14:01:35;18.70;99.90
27707;DHT22;36332;51.384;0.040;2023-03-23T14:04:13;18.40;99.90
27707;DHT22;36332;51.384;0.040;2023-03-23T14:06:42;18.60;99.90
27707;DHT22;36332;51.384;0.040;2023-03-23T14:09:28;18.70;99.90
27707;DHT22;36332;51.384;0.040;2023-03-23T14:12:03;18.80;99.90
27707;DHT22;36332;51.384;0.040;2023-03-23T14:15:00;18.70;99.90
27707;DHT22;36332;51.384;0.040;2023-03-23T14:17:33;18.10;99.90
27707;DHT22;36332;51.384;0.040;2023-03-23T14:20:05;17.40;99.90
27707;DHT22;36332;51.384;0.040;2023-03-23T14:22:39;16.90;99.90
27707;DHT22;36332;51.384;0.040;2023-03-23T14:25:17;16.30;99.90
27707;DHT22;36332;51.384;0.040;2023-03-23T14:27:45;16.20;99.90
27707;DHT22;36332;51.384;0.040;2023-03-23T14:30:17;15.80;99.90
27707;DHT22;36332;51.384;0.040;2023-03-23T14:32:44;15.60;99.90
27707;DHT22;36332;51.384;0.040;2023-03-23T14:35:22;15.50;99.90
27707;DHT22;36332;51.384;0.040;2023-03-23T14:37:49;15.20;99.90
27707;DHT22;36332;51.384;0.040;2023-03-23T14:40:18;15.00;99.90
27707;DHT22;36332;51.384;0.040;2023-03-23T14:42:45;14.80;99.90
27707;DHT22;36332;51.384;0.040;2023-03-23T14:45:16;14.80;99.90
27707;DHT22;36332;51.384;0.040;2023-03-23T14:47:58;14.60;99.90
27707;DHT22;36332;51.384;0.040;2023-03-23T14:52:52;14.50;99.90
27707;DHT22;36332;51.384;0.040;2023-03-23T14:55:21;14.50;99.90
27707;DHT22;36332;51.384;0.040;2023-03-23T14:57:49;14.30;99.90
27707;DHT22;36332;51.384;0.040;2023-03-23T15:00:21;14.30;99.90
27707;DHT22;36332;51.384;0.040;2023-03-23T15:02:51;14.20;99.90
27707;DHT22;36332;51.384;0.040;2023-03-23T15:05:27;14.20;99.90
27707;DHT22;36332;51.384;0.040;2023-03-23T15:07:59;14.10;99.90
27707;DHT22;36332;51.384;0.040;2023-03-23T15:10:27;14.10;99.90
27707;DHT22;36332;51.384;0.040;2023-03-23T15:12:53;14.00;99.90
27707;DHT22;36332;51.384;0.040;2023-03-23T15:15:33;13.90;99.90
27707;DHT22;36332;51.384;0.040;2023-03-23T15:18:02;13.90;99.90
27707;DHT22;36332;51.384;0.040;2023-03-23T15:23:15;13.20;99.90
27707;DHT22;36332;51.384;0.040;2023-03-23T15:25:51;13.30;99.90
27707;DHT22;36332;51.384;0.040;2023-03-23T15:28:32;13.60;99.90
27707;DHT22;36332;51.384;0.040;2023-03-23T15:31:04;13.60;99.90
27707;DHT22;36332;51.384;0.040;2023-03-23T15:33:39;13.50;99.90
27707;DHT22;36332;51.384;0.040;2023-03-23T15:36:08;13.50;99.90
27707;DHT22;36332;51.384;0.040;2023-03-23T15:38:36;13.50;99.90
27707;DHT22;36332;51.384;0.040;2023-03-23T15:41:05;13.50;99.90
27707;DHT22;36332;51.384;0.040;2023-03-23T15:43:49;13.50;99.90
27707;DHT22;36332;51.384;0.040;2023-03-23T15:51:26;13.40;99.90
27707;DHT22;36332;51.384;0.040;2023-03-23T15:53:54;13.10;99.90
27707;DHT22;36332;51.384;0.040;2023-03-23T15:56:21;13.10;99.90
27707;DHT22;36332;51.384;0.040;2023-03-23T15:58:48;12.90;99.90
27707;DHT22;36332;51.384;0.040;2023-03-23T16:01:26;12.90;99.90
27707;DHT22;36332;51.384;0.040;2023-03-23T16:03:59;12.70;99.90
27707;DHT22;36332;51.384;0.040;2023-03-23T16:06:30;12.60;99.90
27707;DHT22;36332;51.384;0.040;2023-03-23T16:08:58;12.60;99.90
27707;DHT22;36332;51.384;0.040;2023-03-23T16:11:28;12.50;99.90
27707;DHT22;36332;51.384;0.040;2023-03-23T16:13:58;12.50;99.90
27707;DHT22;36332;51.384;0.040;2023-03-23T16:16:30;12.50;99.90
27707;DHT22;36332;51.384;0.040;2023-03-23T16:18:59;12.40;99.90
27707;DHT22;36332;51.384;0.040;2023-03-23T16:21:27;12.30;99.90
27707;DHT22;36332;51.384;0.040;2023-03-23T16:23:55;12.20;99.90
27707;DHT22;36332;51.384;0.040;2023-03-23T16:26:23;12.20;99.90
27707;DHT22;36332;51.384;0.040;2023-03-23T16:28:51;12.10;99.90
27707;DHT22;36332;51.384;0.040;2023-03-23T16:31:30;12.10;99.90
27707;DHT22;36332;51.384;0.040;2023-03-23T16:33:57;12.10;99.90
27707;DHT22;36332;51.384;0.040;2023-03-23T16:36:25;12.00;99.90
27707;DHT22;36332;51.384;0.040;2023-03-23T16:38:52;12.00;99.90
27707;DHT22;36332;51.384;0.040;2023-03-23T16:41:21;12.00;99.90
27707;DHT22;36332;51.384;0.040;2023-03-23T16:43:49;11.90;99.90
27707;DHT22;36332;51.384;0.040;2023-03-23T16:46:17;11.90;99.90
27707;DHT22;36332;51.384;0.040;2023-03-23T16:48:45;11.90;99.90
27707;DHT22;36332;51.384;0.040;2023-03-23T16:51:12;11.90;99.90
27707;DHT22;36332;51.384;0.040;2023-03-23T16:53:40;11.90;99.90
27707;DHT22;36332;51.384;0.040;2023-03-23T16:56:07;11.90;99.90
27707;DHT22;36332;51.384;0.040;2023-03-23T16:58:35;11.80;99.90
27707;DHT22;36332;51.384;0.040;2023-03-23T17:01:02;11.80;99.90
27707;DHT22;36332;51.384;0.040;2023-03-23T17:03:30;11.80;99.90
27707;DHT22;36332;51.384;0.040;2023-03-23T17:05:59;11.70;99.90
27707;DHT22;36332;51.384;0.040;2023-03-23T17:08:28;11.70;99.90
27707;DHT22;36332;51.384;0.040;2023-03-23T17:10:55;11.70;99.90
27707;DHT22;36332;51.384;0.040;2023-03-23T17:13:23;11.60;99.90
27707;DHT22;36332;51.384;0.040;2023-03-23T17:15:55;11.60;99.90
27707;DHT22;36332;51.384;0.040;2023-03-23T17:18:23;11.60;99.90
27707;DHT22;36332;51.384;0.040;2023-03-23T17:20:54;11.50;99.90
27707;DHT22;36332;51.384;0.040;2023-03-23T17:23:22;11.50;99.90
27707;DHT22;36332;51.384;0.040;2023-03-23T17:25:50;11.40;99.90
27707;DHT22;36332;51.384;0.040;2023-03-23T17:28:18;11.50;99.90
27707;DHT22;36332;51.384;0.040;2023-03-23T17:30:47;11.50;99.90
27707;DHT22;36332;51.384;0.040;2023-03-23T17:33:15;11.50;99.90
27707;DHT22;36332;51.384;0.040;2023-03-23T17:35:45;11.50;99.90
27707;DHT22;36332;51.384;0.040;2023-03-23T17:38:14;11.40;99.90
27707;DHT22;36332;51.384;0.040;2023-03-23T17:40:42;11.50;99.90
27707;DHT22;36332;51.384;0.040;2023-03-23T17:43:09;11.40;99.90
27707;DHT22;36332;51.384;0.040;2023-03-23T17:45:37;11.40;99.90
27707;DHT22;36332;51.384;0.040;2023-03-23T17:48:05;11.40;99.90